UTAA

Ashgabat Airport

Ashgabat, Turkmenistan
TAF UTAA 251030Z 2512/2612 12016KT 6000 SCT050 530009 TEMPO 2512/2518 05014KT TEMPO 2518/2603 19012KT
Issued Valid From Valid To
Sep-25 @ 10:30 UTC
(7 hours ago)
Sep-25 @ 12:00 UTC
(5 hours ago)
Sep-26 @ 12:00 UTC
(in 19 hours)
Sep-25 @ 12:00 to Sep-26 @ 12:00
TAF UTAA 251030Z 2512/2612 12016KT 6000 SCT050 530009
Wind Visibility Clouds Turbulence
120° at 16 knots 6,003 meters
  • Scattered at 5,000' AGL
Frequent moderate clear air turbulence expected at the surface extending to 9,000' AGL
Temporary Sep-25 @ 12:00 to Sep-25 @ 18:00
TEMPO 2512/2518 05014KT
Wind
50° at 14 knots
Temporary Sep-25 @ 18:00 to Sep-26 @ 03:00
TEMPO 2518/2603 19012KT
Wind
190° at 12 knots
TAF UTAA 251030Z 2512/2612 12016KT 6000 SCT050 530009 TEMPO 2512/2518 05014KT TEMPO 2518/2603 19012KT
Issued Sep-25 @ 10:30 UTC
(7 hours ago)
Valid From Sep-25 @ 12:00 UTC
(5 hours ago)
Valid To Sep-26 @ 12:00 UTC
(in 19 hours)
Sep-25 @ 12:00 - Sep-26 @ 12:00
Wind Visibility
120° at 16 knots 6,003 meters
Clouds
  • Scattered at 5,000' AGL
Temporary Sep-25 @ 12:00 - Sep-25 @ 18:00
Wind
50° at 14 knots
Temporary Sep-25 @ 18:00 - Sep-26 @ 03:00
Wind
190° at 12 knots